Terminal Aerodrome Forecast
Issued by NWS

Home | Current Version | Previous Version | Text Only | Print | Product List | Glossary On
Versions: 1 2 3 4 5 6 7 8 9 10 11 12 13 14
000
FTUS41 KCAR 070543
TAFHUL
TAF
KHUL 070543Z 0706/0806 18005KT P6SM SCT120
     FM070900 17005KT 4SM BR SCT120
     FM071100 19006KT P6SM FEW250
     FM071600 19010G20KT P6SM BKN250
     FM080300 19011KT P6SM -RA SCT007 OVC020=

USA.gov is the U.S. government's official web portal to all federal, state and local government web resources and services.